Time;durP1;ratioP1;P1;durP2;ratioP2;P2;SDS_P1;SDS_P2;PMS_P1;PMS_P2;Temp;Humidity;BMP_temperature;BMP_pressure;BME280_temperature;BME280_humidity;BME280_pressure;Samples;Min_cycle;Max_cycle;Signal;HPM_P1;HPM_P2
2022/02/19 00:00:05;;;;;;;26.35;4.05;;;;;;;10.68;69.27;100167.34;4905491;29;20037;-51
2022/02/19 00:02:38;;;;;;;23.42;3.72;;;;;;;10.59;72.04;100161.41;4910888;29;20467;-50
2022/02/19 00:05:04;;;;;;;25.30;4.22;;;;;;;10.37;73.08;100166.16;4914275;29;20118;-47
2022/02/19 00:07:29;;;;;;;26.52;4.93;;;;;;;10.71;72.97;100158.03;4912726;29;20032;-47
2022/02/19 00:09:54;;;;;;;23.87;3.90;;;;;;;10.51;72.98;100152.78;4909760;29;20033;-49
2022/02/19 00:12:20;;;;;;;24.10;4.17;;;;;;;10.17;74.91;100191.13;4915193;29;20036;-48
2022/02/19 00:14:47;;;;;;;21.20;4.13;;;;;;;10.18;76.14;100192.75;4905611;29;20045;-46
2022/02/19 00:17:13;;;;;;;27.58;5.32;;;;;;;10.06;78.69;100162.34;4916196;29;20047;-47
2022/02/19 00:19:38;;;;;;;25.73;3.33;;;;;;;10.02;79.32;100175.28;4906186;29;20068;-48
2022/02/19 00:22:05;;;;;;;19.93;4.47;;;;;;;10.40;78.76;100170.28;4910940;29;20037;-49
2022/02/19 00:24:32;;;;;;;21.70;4.63;;;;;;;9.97;82.96;100174.28;4896504;29;20044;-47
2022/02/19 00:26:58;;;;;;;12.95;3.53;;;;;;;10.15;83.68;100187.84;4903673;29;20060;-45
2022/02/19 00:29:23;;;;;;;21.00;2.47;;;;;;;9.88;87.55;100195.06;4915933;29;20037;-48
2022/02/19 00:31:49;;;;;;;21.57;2.47;;;;;;;10.19;87.83;100197.06;4906813;29;20056;-48
2022/02/19 00:34:15;;;;;;;22.67;4.50;;;;;;;10.32;85.16;100192.72;4909187;29;20284;-48
2022/02/19 00:36:41;;;;;;;30.67;4.13;;;;;;;10.78;83.70;100212.34;4914374;29;20036;-46
2022/02/19 00:39:08;;;;;;;22.42;3.65;;;;;;;10.56;85.78;100222.50;4903699;29;20044;-49
2022/02/19 00:41:37;;;;;;;20.15;3.15;;;;;;;10.58;84.54;100244.47;4914578;29;20049;-47
2022/02/19 00:44:03;;;;;;;26.10;5.32;;;;;;;10.60;86.55;100255.78;4893215;29;20099;-47
2022/02/19 00:46:29;;;;;;;21.45;4.38;;;;;;;9.94;93.39;100260.19;4890764;29;20048;-50
2022/02/19 00:48:55;;;;;;;21.75;3.33;;;;;;;10.27;91.22;100248.63;4915863;29;20028;-49
2022/02/19 00:51:21;;;;;;;17.50;3.63;;;;;;;10.11;93.11;100266.72;4887015;29;20048;-49
2022/02/19 00:53:47;;;;;;;21.25;3.90;;;;;;;9.94;94.71;100254.84;4887882;29;20069;-48
2022/02/19 00:56:13;;;;;;;23.23;3.25;;;;;;;10.12;89.97;100265.72;4872143;29;20065;-48
2022/02/19 00:58:38;;;;;;;24.15;4.65;;;;;;;10.22;91.33;100275.97;4868086;29;20046;-45
2022/02/19 01:01:04;;;;;;;28.60;5.77;;;;;;;10.19;89.87;100279.06;4892916;29;20053;-47
2022/02/19 01:03:52;;;;;;;23.75;6.22;;;;;;;10.35;87.59;100291.19;4869561;29;20051;-47
2022/02/19 01:06:19;;;;;;;22.65;4.63;;;;;;;10.28;86.94;100296.56;4871170;29;20037;-47
2022/02/19 01:08:49;;;;;;;24.48;5.45;;;;;;;9.91;86.64;100320.16;4876918;29;20109;-46
2022/02/19 01:11:15;;;;;;;21.00;4.55;;;;;;;10.14;81.25;100309.06;4866158;29;20108;-48
2022/02/19 01:13:40;;;;;;;22.23;5.22;;;;;;;10.47;77.84;100312.78;4875504;29;20045;-49
2022/02/19 01:16:06;;;;;;;12.65;2.97;;;;;;;10.01;78.70;100319.78;4871917;29;20072;-48
2022/02/19 01:18:31;;;;;;;17.37;2.73;;;;;;;10.35;76.84;100333.94;4868812;29;20070;-47
2022/02/19 01:20:57;;;;;;;10.07;3.93;;;;;;;10.25;76.96;100325.53;4877318;29;20070;-48
2022/02/19 01:23:23;;;;;;;28.40;4.43;;;;;;;10.47;76.80;100328.81;4865919;29;20108;-47
2022/02/19 01:25:48;;;;;;;22.40;3.83;;;;;;;10.22;78.82;100331.28;4877448;29;20071;-48
2022/02/19 01:28:14;;;;;;;19.20;3.75;;;;;;;9.94;78.34;100346.47;4872055;29;20033;-46
2022/02/19 01:30:39;;;;;;;20.23;3.03;;;;;;;10.18;76.74;100376.28;4867958;29;20042;-47
2022/02/19 01:33:05;;;;;;;21.85;3.17;;;;;;;10.45;72.17;100371.00;4877394;29;20042;-47
2022/02/19 01:35:32;;;;;;;20.45;6.90;;;;;;;10.12;75.04;100366.44;4866578;29;20037;-48
2022/02/19 01:37:59;;;;;;;13.32;2.95;;;;;;;10.19;75.99;100361.91;4873704;29;20037;-47
2022/02/19 01:40:25;;;;;;;22.17;4.03;;;;;;;10.19;71.99;100369.94;4873196;29;20109;-47
2022/02/19 01:42:51;;;;;;;17.17;2.33;;;;;;;10.44;67.81;100393.41;4867092;29;20403;-45
2022/02/19 01:45:21;;;;;;;13.20;4.50;;;;;;;10.40;65.53;100382.31;4881538;29;20037;-47
2022/02/19 01:47:48;;;;;;;15.95;2.42;;;;;;;10.59;64.63;100379.81;4872091;29;20030;-47
2022/02/19 01:50:18;;;;;;;7.80;2.05;;;;;;;10.38;64.81;100413.75;4881168;29;20042;-45
2022/02/19 01:52:46;;;;;;;9.43;2.28;;;;;;;10.35;66.67;100418.66;4881083;29;20065;-46
2022/02/19 01:55:17;;;;;;;16.65;3.20;;;;;;;10.69;64.70;100424.88;4898762;29;20053;-48
2022/02/19 01:57:58;;;;;;;18.45;4.10;;;;;;;10.19;66.59;100424.22;4895894;29;20070;-48
2022/02/19 02:00:46;;;;;;;;;;;;;;;10.12;66.37;100423.34;4898199;29;20077;-48
2022/02/19 02:03:34;;;;;;;18.95;4.75;;;;;;;10.46;66.09;100426.09;4889183;29;19992;-46
2022/02/19 02:06:09;;;;;;;24.73;3.88;;;;;;;10.61;63.46;100432.09;4899471;29;20037;-48
2022/02/19 02:08:38;;;;;;;22.67;4.18;;;;;;;10.64;64.32;100441.56;4909023;29;20038;-48
2022/02/19 02:11:05;;;;;;;16.02;2.40;;;;;;;10.27;64.79;100449.94;4884443;29;20037;-46
2022/02/19 02:13:36;;;;;;;20.33;3.53;;;;;;;10.27;66.25;100463.28;4899303;29;20029;-47
2022/02/19 02:16:01;;;;;;;12.50;2.70;;;;;;;10.39;65.42;100449.31;4888383;29;20048;-51
2022/02/19 02:18:51;;;;;;;14.43;2.05;;;;;;;10.37;63.08;100454.84;4898586;29;20072;-49
2022/02/19 02:21:21;;;;;;;13.65;3.60;;;;;;;10.61;64.18;100452.66;4901010;29;20033;-50
2022/02/19 02:23:47;;;;;;;15.77;2.50;;;;;;;10.29;64.26;100476.44;4898703;29;20038;-51
2022/02/19 02:26:14;;;;;;;13.18;3.22;;;;;;;10.44;65.24;100484.28;4889900;29;20041;-46
2022/02/19 02:28:40;;;;;;;15.98;2.88;;;;;;;10.31;68.29;100485.06;4896526;29;20037;-51
2022/02/19 02:31:07;;;;;;;24.15;3.53;;;;;;;10.63;65.48;100484.53;4902142;29;20064;-48
2022/02/19 02:33:34;;;;;;;17.77;3.28;;;;;;;10.29;69.54;100481.78;4898160;29;20073;-47
2022/02/19 02:36:10;;;;;;;11.90;2.03;;;;;;;10.38;68.75;100496.63;4892850;29;20037;-48
2022/02/19 02:38:58;;;;;;;8.02;1.70;;;;;;;10.20;65.99;100505.19;4887280;29;20063;-48
2022/02/19 02:41:25;;;;;;;13.70;2.33;;;;;;;10.19;67.88;100501.72;4899479;29;20093;-49
2022/02/19 02:43:55;;;;;;;6.18;1.75;;;;;;;9.92;67.62;100499.94;4890441;29;20037;-46
2022/02/19 02:46:21;;;;;;;8.63;1.83;;;;;;;10.19;66.68;100515.06;4891886;29;20049;-46
2022/02/19 02:48:48;;;;;;;15.13;2.30;;;;;;;10.06;65.30;100509.66;4897032;29;20069;-46
2022/02/19 02:51:14;;;;;;;13.68;2.38;;;;;;;10.24;65.27;100501.09;4886472;29;20053;-50
2022/02/19 02:53:43;;;;;;;9.60;1.42;;;;;;;10.41;64.63;100506.94;4906896;29;20081;-51
2022/02/19 02:56:09;;;;;;;12.82;2.33;;;;;;;10.34;63.85;100516.72;4864755;29;20049;-47
2022/02/19 02:58:35;;;;;;;15.68;1.77;;;;;;;10.38;65.08;100507.31;4876287;29;20105;-52
2022/02/19 03:01:05;;;;;;;13.32;2.55;;;;;;;10.26;63.62;100530.28;4883139;29;20046;-49
2022/02/19 03:03:33;;;;;;;9.82;1.83;;;;;;;10.22;64.18;100542.41;4879235;29;20041;-48
2022/02/19 03:06:01;;;;;;;12.77;2.63;;;;;;;10.13;64.72;100536.41;4871631;29;20049;-48
2022/02/19 03:08:27;;;;;;;15.95;2.95;;;;;;;10.37;64.62;100547.59;4872061;29;20046;-48
2022/02/19 03:10:53;;;;;;;9.32;1.80;;;;;;;10.16;64.94;100541.34;4879090;29;20060;-47
2022/02/19 03:13:19;;;;;;;8.48;1.67;;;;;;;10.17;64.76;100554.53;4867331;29;20038;-48
2022/02/19 03:15:44;;;;;;;13.20;2.10;;;;;;;10.02;65.86;100543.16;4893158;29;20053;-47
2022/02/19 03:18:10;;;;;;;15.48;2.58;;;;;;;10.09;66.16;100559.22;4872752;29;20285;-49
2022/02/19 03:20:40;;;;;;;11.85;2.33;;;;;;;10.31;65.82;100581.28;4870410;29;20038;-44
2022/02/19 03:23:07;;;;;;;18.83;3.90;;;;;;;10.15;67.18;100572.63;4880133;29;20126;-48
2022/02/19 03:25:32;;;;;;;13.88;2.20;;;;;;;9.78;70.79;100565.81;4867757;29;20047;-46
2022/02/19 03:28:00;;;;;;;9.93;2.13;;;;;;;10.30;68.68;100596.53;4875235;29;20071;-46
2022/02/19 03:30:30;;;;;;;8.85;2.50;;;;;;;10.02;68.37;100589.38;4875111;29;20057;-47
2022/02/19 03:32:58;;;;;;;17.98;2.20;;;;;;;10.10;68.55;100601.75;4853491;29;20037;-47
2022/02/19 03:35:24;;;;;;;20.70;2.78;;;;;;;9.92;68.43;100598.78;4879189;29;20049;-49
2022/02/19 03:37:49;;;;;;;13.13;4.03;;;;;;;10.42;66.58;100610.16;4870500;29;20064;-47
2022/02/19 03:40:30;;;;;;;10.88;1.88;;;;;;;10.02;66.81;100644.69;4879388;29;20042;-49
2022/02/19 03:42:56;;;;;;;13.77;2.92;;;;;;;10.06;67.42;100632.56;4874998;29;20049;-48
2022/02/19 03:45:22;;;;;;;30.30;4.77;;;;;;;10.17;67.05;100634.69;4880657;29;20046;-47
2022/02/19 03:48:01;;;;;;;18.05;2.80;;;;;;;10.33;66.18;100636.22;4879186;29;20046;-50
2022/02/19 03:50:28;;;;;;;12.25;2.70;;;;;;;10.04;68.72;100650.66;4886788;29;20038;-51
2022/02/19 03:52:55;;;;;;;17.02;2.83;;;;;;;10.56;65.72;100637.78;4863854;29;20037;-47
2022/02/19 03:55:31;;;;;;;21.13;4.95;;;;;;;10.44;66.11;100637.53;4881539;29;20041;-50
2022/02/19 03:57:58;;;;;;;20.58;3.25;;;;;;;10.52;63.82;100652.56;4885587;29;20070;-50
2022/02/19 04:00:24;;;;;;;16.43;2.50;;;;;;;10.03;63.88;100662.34;4892074;29;20045;-49
2022/02/19 04:02:50;;;;;;;16.27;2.38;;;;;;;10.13;64.18;100668.16;4900666;29;20032;-49
2022/02/19 04:05:22;;;;;;;26.73;3.88;;;;;;;9.85;65.44;100677.03;4885291;29;20097;-46
2022/02/19 04:07:48;;;;;;;13.60;2.80;;;;;;;10.16;64.43;100677.63;4897433;29;20066;-45
2022/02/19 04:10:20;;;;;;;21.13;4.45;;;;;;;10.31;62.43;100709.59;4904113;29;20045;-47
2022/02/19 04:12:47;;;;;;;;;;;;;;;10.42;62.87;100679.69;4882111;29;20047;-48
2022/02/19 04:15:25;;;;;;;22.17;4.47;;;;;;;10.33;63.49;100699.53;4896513;29;19916;-51
2022/02/19 04:17:51;;;;;;;17.27;2.97;;;;;;;10.16;65.35;100699.84;4903198;29;20066;-47
2022/02/19 04:20:17;;;;;;;13.70;2.67;;;;;;;10.73;62.65;100702.44;4906774;29;20061;-50
2022/02/19 04:22:43;;;;;;;23.30;3.58;;;;;;;10.25;62.52;100713.06;4894102;29;20045;-49
2022/02/19 04:25:11;;;;;;;16.80;3.80;;;;;;;10.24;64.43;100714.06;4912968;29;20033;-47
2022/02/19 04:27:36;;;;;;;26.52;3.92;;;;;;;10.42;63.79;100722.44;4911949;29;20051;-50
2022/02/19 04:30:04;;;;;;;15.25;3.83;;;;;;;10.56;62.75;100722.50;4888715;29;20029;-47
2022/02/19 04:32:32;;;;;;;12.70;2.75;;;;;;;10.19;64.89;100728.03;4896940;29;20066;-46
2022/02/19 04:34:58;;;;;;;;;;;;;;;10.33;63.41;100735.13;4897301;29;20034;-47
2022/02/19 04:37:27;;;;;;;20.45;2.67;;;;;;;10.34;62.52;100735.94;4899371;29;19959;-46
2022/02/19 04:39:52;;;;;;;18.13;2.67;;;;;;;10.30;62.69;100732.00;4894946;29;20078;-48
2022/02/19 04:42:30;;;;;;;16.45;2.70;;;;;;;10.29;60.93;100765.09;4891950;29;20044;-47
2022/02/19 04:44:59;;;;;;;11.70;2.67;;;;;;;10.34;62.60;100768.00;4896592;29;20048;-48
2022/02/19 04:47:26;;;;;;;12.27;2.42;;;;;;;10.11;62.76;100763.72;4914110;29;20038;-49
2022/02/19 04:49:53;;;;;;;25.67;2.95;;;;;;;10.19;61.93;100768.09;4896930;29;20041;-50
2022/02/19 04:52:18;;;;;;;8.00;1.50;;;;;;;10.00;61.72;100769.63;4891157;29;20045;-52
2022/02/19 04:54:44;;;;;;;10.85;1.95;;;;;;;10.15;61.93;100765.03;4896432;29;20049;-50
2022/02/19 04:57:16;;;;;;;11.70;2.22;;;;;;;10.75;59.25;100767.25;4909895;29;20070;-47
2022/02/19 04:59:45;;;;;;;17.00;3.15;;;;;;;10.26;61.53;100798.38;4882715;29;20513;-49
2022/02/19 05:02:10;;;;;;;13.13;2.08;;;;;;;10.52;60.64;100796.97;4901301;29;20042;-48
2022/02/19 05:04:40;;;;;;;13.40;2.50;;;;;;;10.40;61.72;100783.31;4881134;29;20054;-49
2022/02/19 05:07:13;;;;;;;17.15;2.78;;;;;;;10.43;61.95;100798.13;4894641;29;20227;-49
2022/02/19 05:09:41;;;;;;;15.73;3.72;;;;;;;10.45;63.20;100793.41;4895251;29;20025;-51
2022/02/19 05:12:10;;;;;;;12.73;2.70;;;;;;;10.31;64.21;100805.81;4888850;29;20060;-48
2022/02/19 05:14:40;;;;;;;15.43;3.25;;;;;;;10.17;65.59;100799.56;4887787;29;20063;-50
2022/02/19 05:17:26;;;;;;;16.08;3.50;;;;;;;10.25;64.31;100798.59;4896011;29;20056;-49
2022/02/19 05:19:57;;;;;;;11.30;2.40;;;;;;;10.14;64.87;100811.44;4902471;29;20057;-46
2022/02/19 05:22:22;;;;;;;20.53;2.20;;;;;;;10.59;63.64;100813.88;4890876;29;20045;-48
2022/02/19 05:24:52;;;;;;;16.23;2.03;;;;;;;10.58;62.65;100814.03;4894193;29;20040;-50
2022/02/19 05:27:19;;;;;;;15.15;2.17;;;;;;;10.18;63.33;100818.06;4884564;29;20069;-47
2022/02/19 05:29:47;;;;;;;18.35;3.35;;;;;;;10.55;63.34;100825.13;4901125;29;20037;-46
2022/02/19 05:32:14;;;;;;;22.60;4.38;;;;;;;10.90;61.38;100835.84;4911763;29;20049;-50
2022/02/19 05:34:52;;;;;;;14.75;2.53;;;;;;;10.06;64.56;100824.13;4880676;29;20048;-50
2022/02/19 05:37:19;;;;;;;10.90;2.08;;;;;;;10.32;65.50;100828.84;4896862;29;20045;-49
2022/02/19 05:39:49;;;;;;;8.95;2.03;;;;;;;10.36;63.15;100834.66;4901161;29;20074;-47
2022/02/19 05:42:16;;;;;;;15.52;2.78;;;;;;;10.61;61.75;100835.06;4895914;29;20037;-50
2022/02/19 05:44:46;;;;;;;14.82;3.35;;;;;;;10.43;63.93;100847.09;4907981;29;20033;-46
2022/02/19 05:47:12;;;;;;;27.03;5.00;;;;;;;10.48;65.61;100841.13;4899005;29;20057;-46
2022/02/19 05:49:47;;;;;;;24.25;5.38;;;;;;;9.98;68.65;100871.31;4894744;29;20032;-50
2022/02/19 05:52:17;;;;;;;20.00;3.92;;;;;;;10.55;65.36;100857.22;4888946;29;20097;-47
2022/02/19 05:55:08;;;;;;;20.30;5.55;;;;;;;10.36;67.38;100848.03;4899246;29;20054;-51
2022/02/19 05:57:40;;;;;;;26.80;5.90;;;;;;;10.50;67.75;100862.34;4911439;29;20040;-48
2022/02/19 06:00:06;;;;;;;32.92;6.00;;;;;;;10.60;67.25;100862.81;4887293;29;20056;-47
2022/02/19 06:02:41;;;;;;;18.63;5.93;;;;;;;10.18;69.57;100876.03;4888173;29;20037;-47
2022/02/19 06:05:07;;;;;;;24.98;5.70;;;;;;;10.19;68.26;100896.38;4895593;29;20043;-49
2022/02/19 06:07:36;;;;;;;27.65;6.03;;;;;;;9.74;72.43;100883.22;4883622;29;20045;-49
2022/02/19 06:10:03;;;;;;;38.80;6.38;;;;;;;10.49;68.10;100871.38;4891968;29;20037;-48
2022/02/19 06:12:32;;;;;;;20.17;4.65;;;;;;;10.55;67.39;100873.28;4890748;29;20037;-49
2022/02/19 06:15:07;;;;;;;23.30;5.20;;;;;;;9.88;72.43;100893.00;4880803;29;20149;-48
2022/02/19 06:17:53;;;;;;;19.02;3.42;;;;;;;10.41;67.65;100873.19;4873737;29;20053;-48
2022/02/19 06:20:20;;;;;;;23.55;5.45;;;;;;;10.23;71.06;100894.97;4886463;29;20042;-47
2022/02/19 06:22:46;;;;;;;27.08;4.78;;;;;;;10.35;68.72;100876.59;4886165;29;20045;-47
2022/02/19 06:25:13;;;;;;;24.58;5.78;;;;;;;10.01;72.49;100880.81;4883201;29;20038;-46
2022/02/19 06:27:43;;;;;;;27.67;5.63;;;;;;;10.37;70.52;100887.91;4892306;29;20033;-47
2022/02/19 06:30:20;;;;;;;24.83;5.10;;;;;;;10.64;68.25;100893.53;4881928;29;20037;-46
2022/02/19 06:32:52;;;;;;;32.85;5.10;;;;;;;9.90;71.97;100900.84;4889253;29;20105;-48
2022/02/19 06:35:19;;;;;;;35.90;6.38;;;;;;;10.09;72.66;100910.06;4898606;29;20036;-49
2022/02/19 06:37:46;;;;;;;22.83;4.50;;;;;;;10.66;68.08;100910.19;4887908;29;20116;-45
2022/02/19 06:40:14;;;;;;;24.83;4.10;;;;;;;10.25;72.57;100919.66;4894939;29;20049;-46
2022/02/19 06:42:42;;;;;;;28.42;5.07;;;;;;;10.21;71.01;100918.41;4894789;29;20078;-48
2022/02/19 06:45:22;;;;;;;28.10;5.45;;;;;;;9.91;74.09;100918.53;4887333;29;20066;-47
2022/02/19 06:47:52;;;;;;;30.30;5.78;;;;;;;10.18;73.95;100930.31;4896838;29;20052;-47
2022/02/19 06:50:22;;;;;;;33.20;5.85;;;;;;;10.01;75.22;100929.72;4892503;29;20054;-46
2022/02/19 06:52:49;;;;;;;35.25;6.70;;;;;;;9.96;75.21;100942.81;4888854;29;20078;-49
2022/02/19 06:55:18;;;;;;;31.17;5.22;;;;;;;10.04;74.55;100941.88;4897978;29;20084;-48
2022/02/19 06:57:48;;;;;;;28.77;5.45;;;;;;;10.00;74.80;100944.09;4878324;29;20379;-50
2022/02/19 07:00:16;;;;;;;22.73;4.03;;;;;;;9.95;76.98;100948.38;4917043;29;20037;-47
2022/02/19 07:02:46;;;;;;;23.38;7.03;;;;;;;10.02;76.23;100958.09;4898522;29;20049;-46
2022/02/19 07:05:14;;;;;;;23.92;4.72;;;;;;;10.29;73.48;100958.41;4898779;29;20041;-47
2022/02/19 07:07:58;;;;;;;18.55;4.35;;;;;;;10.12;74.74;100962.31;4900210;29;20068;-47
2022/02/19 07:10:24;;;;;;;23.38;5.15;;;;;;;9.95;74.97;100964.41;4893538;29;20037;-48
2022/02/19 07:12:51;;;;;;;20.17;5.47;;;;;;;10.11;73.79;100974.84;4894949;29;20064;-49
2022/02/19 07:15:20;;;;;;;16.83;4.30;;;;;;;9.56;78.85;100987.72;4896495;29;20288;-46
2022/02/19 07:17:58;;;;;;;22.40;2.90;;;;;;;9.82;77.69;100975.75;4889661;29;20128;-48
2022/02/19 07:20:25;;;;;;;26.52;5.05;;;;;;;9.87;75.72;100997.38;4885308;29;20123;-50
2022/02/19 07:22:52;;;;;;;22.97;4.57;;;;;;;9.85;77.05;100989.53;4892174;29;20049;-49
2022/02/19 07:25:19;;;;;;;24.92;5.40;;;;;;;10.26;74.12;100996.16;4897474;29;20029;-48
2022/02/19 07:27:46;;;;;;;22.20;5.15;;;;;;;9.92;76.02;100999.47;4885493;29;20113;-48
2022/02/19 07:30:15;;;;;;;25.42;6.43;;;;;;;10.00;75.18;101013.56;4902917;29;20025;-48
2022/02/19 07:32:40;;;;;;;27.63;6.00;;;;;;;9.73;77.05;101012.41;4905305;29;20049;-49
2022/02/19 07:35:14;;;;;;;23.50;4.40;;;;;;;10.16;74.62;101004.53;4910005;29;20037;-48
2022/02/19 07:37:40;;;;;;;24.13;6.00;;;;;;;10.41;71.81;101025.59;4907051;29;20038;-51
2022/02/19 07:40:07;;;;;;;26.33;4.17;;;;;;;10.44;71.80;101013.66;4894982;29;20033;-53
2022/02/19 07:42:35;;;;;;;19.05;3.60;;;;;;;10.49;72.36;101021.13;4892003;29;20076;-47
2022/02/19 07:45:24;;;;;;;11.20;2.55;;;;;;;10.45;71.87;101026.00;4893695;29;20052;-47
2022/02/19 07:48:19;;;;;;;16.33;3.10;;;;;;;10.35;73.71;101036.97;4858341;29;20045;-49
2022/02/19 07:59:45;;;;;;;14.88;3.25;;;;;;;10.21;74.22;101059.25;4884512;29;20065;-52
2022/02/19 08:02:12;;;;;;;25.52;4.70;;;;;;;10.27;73.83;101053.16;4889745;29;20094;-50
2022/02/19 08:04:38;;;;;;;30.27;4.80;;;;;;;10.79;70.31;101058.44;4889689;29;20037;-51
2022/02/19 08:07:04;;;;;;;21.50;3.80;;;;;;;10.94;68.51;101061.88;4879452;29;20121;-48
2022/02/19 08:09:31;;;;;;;25.10;6.00;;;;;;;10.85;69.11;101069.19;4879610;29;20106;-47
2022/02/19 08:11:57;;;;;;;13.77;2.15;;;;;;;10.56;69.94;101073.66;4890444;29;20512;-49
2022/02/19 08:14:22;;;;;;;7.40;2.07;;;;;;;10.50;71.38;101076.25;4892703;29;20041;-50
2022/02/19 08:16:48;;;;;;;10.30;2.55;;;;;;;10.60;71.94;101082.13;4891516;29;20047;-51
2022/02/19 08:19:13;;;;;;;8.97;2.30;;;;;;;10.90;70.53;101082.03;4885680;29;20045;-51
2022/02/19 08:21:39;;;;;;;17.58;3.63;;;;;;;10.82;70.45;101088.31;4882343;29;20029;-47
2022/02/19 08:24:04;;;;;;;16.43;2.73;;;;;;;11.04;68.85;101094.47;4882229;29;20060;-50
2022/02/19 08:26:30;;;;;;;25.25;4.32;;;;;;;11.18;67.98;101087.38;4877997;29;20076;-45
2022/02/19 08:28:55;;;;;;;12.20;2.63;;;;;;;11.48;66.42;101089.06;4881832;29;20042;-49
2022/02/19 08:31:21;;;;;;;10.50;2.15;;;;;;;11.24;66.35;101096.50;4877435;29;20041;-48
2022/02/19 08:33:47;;;;;;;12.65;2.60;;;;;;;10.64;69.14;101094.13;4880419;29;20045;-48
2022/02/19 08:36:12;;;;;;;18.90;2.77;;;;;;;11.33;66.82;101098.03;4879714;29;20072;-48
2022/02/19 08:38:38;;;;;;;7.28;1.67;;;;;;;11.41;65.48;101109.63;4875346;29;20074;-50
2022/02/19 08:41:04;;;;;;;9.10;1.80;;;;;;;11.13;67.05;101102.41;4870487;29;20237;-48
2022/02/19 08:43:30;;;;;;;16.00;2.17;;;;;;;12.05;61.81;101099.75;4875266;29;20040;-47
2022/02/19 08:45:55;;;;;;;18.40;3.85;;;;;;;12.07;62.12;101111.09;4877397;29;20288;-47
2022/02/19 08:48:21;;;;;;;12.70;3.00;;;;;;;12.23;61.73;101112.59;4881294;29;20076;-48
2022/02/19 08:50:47;;;;;;;19.13;2.88;;;;;;;11.59;64.04;101120.69;4881567;29;20052;-48
2022/02/19 08:53:13;;;;;;;18.23;2.70;;;;;;;11.44;65.42;101119.94;4880468;29;20049;-48
2022/02/19 08:55:40;;;;;;;17.40;2.88;;;;;;;11.83;65.04;101131.97;4907359;29;20061;-49
2022/02/19 08:58:06;;;;;;;16.10;3.53;;;;;;;11.95;62.50;101139.44;4901960;29;20036;-48
2022/02/19 09:00:32;;;;;;;13.65;1.95;;;;;;;11.78;64.38;101121.00;4918769;29;20123;-47
2022/02/19 09:02:58;;;;;;;12.88;3.50;;;;;;;11.64;63.38;101141.50;4905571;29;20544;-48
2022/02/19 09:05:23;;;;;;;13.53;2.47;;;;;;;11.55;65.60;101134.66;4915646;29;20099;-50
2022/02/19 09:07:49;;;;;;;12.23;3.20;;;;;;;10.95;66.67;101119.72;4918187;29;20044;-50
2022/02/19 09:10:16;;;;;;;20.75;2.47;;;;;;;11.35;66.28;101121.91;4914332;29;20108;-54
2022/02/19 09:12:46;;;;;;;17.10;2.45;;;;;;;12.20;60.99;101126.41;4913527;29;20423;-49
2022/02/19 09:15:13;;;;;;;26.42;4.30;;;;;;;12.15;61.98;101128.88;4918392;29;20029;-52
2022/02/19 09:17:39;;;;;;;14.38;2.55;;;;;;;13.16;55.36;101131.84;4899950;29;20045;-50
2022/02/19 09:20:05;;;;;;;11.07;2.15;;;;;;;13.54;53.81;101128.56;4906049;29;20040;-46
2022/02/19 09:22:31;;;;;;;19.73;2.75;;;;;;;13.44;53.23;101128.16;4908896;29;20060;-51
2022/02/19 09:24:56;;;;;;;18.03;2.87;;;;;;;13.50;52.58;101129.19;4912329;29;20036;-49
2022/02/19 09:27:21;;;;;;;11.90;3.30;;;;;;;13.70;51.62;101129.97;4917677;29;20069;-51
2022/02/19 09:29:47;;;;;;;17.80;2.87;;;;;;;12.85;52.96;101142.13;4914487;29;20029;-50
2022/02/19 09:32:12;;;;;;;14.53;2.77;;;;;;;13.66;51.12;101142.19;4883166;29;20048;-48
2022/02/19 09:34:38;;;;;;;19.63;2.20;;;;;;;13.90;51.34;101154.16;4893757;29;20041;-49
2022/02/19 09:37:03;;;;;;;9.33;2.43;;;;;;;14.11;50.52;101184.50;4904881;29;20511;-53
2022/02/19 09:39:29;;;;;;;17.13;2.10;;;;;;;14.12;49.92;101177.25;4904974;29;20361;-48
2022/02/19 09:41:59;;;;;;;16.30;2.90;;;;;;;14.24;49.39;101161.28;4904241;29;20048;-48
2022/02/19 09:44:25;;;;;;;13.97;2.93;;;;;;;14.43;49.78;101179.22;4909165;29;20111;-51
2022/02/19 09:46:53;;;;;;;13.90;1.90;;;;;;;12.81;55.02;101174.94;4902689;29;20279;-47
2022/02/19 09:49:20;;;;;;;8.63;2.00;;;;;;;13.45;55.41;101175.47;4901866;29;20065;-46
2022/02/19 09:51:46;;;;;;;14.97;2.83;;;;;;;14.22;53.16;101174.13;4915417;29;20299;-47
2022/02/19 09:54:11;;;;;;;13.57;2.80;;;;;;;13.59;54.55;101176.31;4916425;29;20311;-48
2022/02/19 09:56:37;;;;;;;10.83;1.83;;;;;;;14.18;52.74;101176.41;4909650;29;20092;-50
2022/02/19 09:59:06;;;;;;;15.97;4.10;;;;;;;14.91;50.91;101166.41;4898587;29;20292;-47
2022/02/19 10:01:31;;;;;;;11.83;2.87;;;;;;;13.72;54.34;101170.09;4914845;29;20040;-48
2022/02/19 10:04:02;;;;;;;20.90;2.60;;;;;;;13.06;57.64;101169.84;4905451;29;20350;-49
2022/02/19 10:06:33;;;;;;;13.33;2.30;;;;;;;13.05;60.44;101168.19;4913140;29;20037;-46
2022/02/19 10:09:18;;;;;;;12.37;2.60;;;;;;;15.05;52.27;101169.84;4915742;29;20283;-53
2022/02/19 10:11:48;;;;;;;10.93;2.00;;;;;;;14.15;52.92;101174.97;4905727;29;20352;-50
2022/02/19 10:14:29;;;;;;;13.70;2.73;;;;;;;14.30;51.62;101184.66;4913442;29;20286;-50
2022/02/19 10:17:16;;;;;;;10.37;1.77;;;;;;;13.87;52.74;101186.84;4912846;29;20359;-49
2022/02/19 10:19:48;;;;;;;10.30;1.77;;;;;;;13.20;54.45;101186.78;4918965;29;20369;-49
2022/02/19 10:22:15;;;;;;;17.93;2.60;;;;;;;13.59;52.83;101187.88;4915024;29;20045;-51
2022/02/19 10:24:45;;;;;;;11.68;1.92;;;;;;;12.95;55.07;101176.63;4913240;29;20846;-47
2022/02/19 10:27:10;;;;;;;15.87;3.23;;;;;;;14.49;52.22;101174.88;4907519;29;20033;-50
2022/02/19 10:30:03;;;;;;;14.47;2.30;;;;;;;14.42;51.12;101182.97;4901852;29;20283;-47
2022/02/19 10:32:44;;;;;;;7.97;2.00;;;;;;;14.23;52.43;101186.53;4901201;29;20117;-50
2022/02/19 10:35:10;;;;;;;15.97;2.67;;;;;;;15.62;48.74;101185.19;4902657;29;20303;-51
2022/02/19 10:37:45;;;;;;;9.25;1.83;;;;;;;13.66;52.39;101201.31;4902019;29;20288;-49
2022/02/19 10:40:32;;;;;;;9.93;2.27;;;;;;;13.06;57.16;101188.63;4908841;29;20040;-48
2022/02/19 10:42:59;;;;;;;13.73;2.60;;;;;;;12.75;58.12;101193.50;4908602;29;20315;-51
2022/02/19 10:45:25;;;;;;;12.40;2.33;;;;;;;13.20;57.89;101192.97;4918125;29;20142;-50
2022/02/19 10:47:54;;;;;;;18.70;3.28;;;;;;;13.31;56.79;101209.53;4906472;29;20068;-49
2022/02/19 10:50:21;;;;;;;18.60;3.00;;;;;;;13.55;55.90;101207.31;4913370;29;20064;-51
2022/02/19 10:52:56;;;;;;;10.15;2.22;;;;;;;13.43;54.56;101204.41;4913377;29;20279;-50
2022/02/19 10:55:29;;;;;;;16.13;2.40;;;;;;;13.19;56.39;101217.38;4920304;29;20052;-49
2022/02/19 10:57:59;;;;;;;9.03;1.90;;;;;;;13.59;53.08;101220.09;4906962;29;20283;-48
2022/02/19 11:00:26;;;;;;;17.70;4.43;;;;;;;13.35;52.66;101216.16;4921215;29;20291;-48
2022/02/19 11:02:52;;;;;;;12.85;2.40;;;;;;;12.83;50.40;101246.19;4909466;29;20287;-50
2022/02/19 11:05:19;;;;;;;7.97;1.75;;;;;;;13.09;49.11;101206.19;4917537;29;20044;-53
2022/02/19 11:07:47;;;;;;;19.67;3.03;;;;;;;14.07;47.49;101231.69;4905311;29;20090;-52
2022/02/19 11:10:19;;;;;;;9.77;2.80;;;;;;;15.63;43.15;101206.50;4914053;29;20276;-51
2022/02/19 11:12:46;;;;;;;16.50;4.00;;;;;;;16.98;41.71;101229.41;4912831;29;20343;-48
2022/02/19 11:15:12;;;;;;;7.93;1.90;;;;;;;14.71;42.80;101234.63;4906335;29;20315;-49
2022/02/19 11:17:38;;;;;;;8.10;2.00;;;;;;;14.85;43.40;101210.34;4919497;29;20291;-48
2022/02/19 11:20:09;;;;;;;6.90;2.10;;;;;;;16.78;40.65;101208.84;4920915;29;20299;-49
2022/02/19 11:22:37;;;;;;;10.70;3.30;;;;;;;18.23;38.29;101213.50;4911147;29;20105;-49
2022/02/19 11:25:06;;;;;;;12.37;1.97;;;;;;;17.20;39.63;101234.28;4901376;29;20343;-48
2022/02/19 11:27:44;;;;;;;6.33;1.60;;;;;;;16.69;40.63;101203.97;4917196;29;20282;-51
2022/02/19 11:30:10;;;;;;;8.33;2.13;;;;;;;17.92;39.22;101206.28;4912315;29;20275;-49
2022/02/19 11:32:38;;;;;;;11.50;2.33;;;;;;;18.41;37.70;101207.09;4910563;29;20344;-53
2022/02/19 11:35:05;;;;;;;11.63;2.50;;;;;;;16.24;40.56;101197.06;4919152;29;20214;-52